Time;durP1;ratioP1;P1;durP2;ratioP2;P2;SDS_P1;SDS_P2;PMS_P1;PMS_P2;Temp;Humidity;BMP_temperature;BMP_pressure;BME280_temperature;BME280_humidity;BME280_pressure;Samples;Min_cycle;Max_cycle;Signal;HPM_P1;HPM_P2
2021/06/24 00:01:59;;;;;;;11.30;7.13;;;9.70;99.90;;;;;;4948941;29;20738;-78
2021/06/24 00:04:28;;;;;;;11.10;6.60;;;9.70;99.90;;;;;;4955473;29;20223;-78
2021/06/24 00:06:55;;;;;;;9.77;6.60;;;9.70;99.90;;;;;;4948894;29;20254;-77
2021/06/24 00:09:24;;;;;;;9.33;6.40;;;9.70;99.90;;;;;;4954950;29;20201;-77
2021/06/24 00:11:50;;;;;;;10.80;6.80;;;9.70;99.90;;;;;;4951004;29;20203;-76
2021/06/24 00:14:17;;;;;;;12.07;7.03;;;9.70;99.90;;;;;;4942649;29;20207;-76
2021/06/24 00:16:44;;;;;;;8.67;6.33;;;9.60;99.90;;;;;;4952781;29;20203;-77
2021/06/24 00:19:11;;;;;;;8.97;6.30;;;9.50;99.90;;;;;;4955772;29;20627;-76
2021/06/24 00:21:39;;;;;;;10.27;6.60;;;9.50;99.90;;;;;;4954332;29;20236;-76
2021/06/24 00:24:06;;;;;;;13.83;7.13;;;9.50;99.90;;;;;;4938182;29;20703;-76
2021/06/24 00:26:34;;;;;;;11.53;7.33;;;9.40;99.90;;;;;;4951442;29;20212;-78
2021/06/24 00:29:01;;;;;;;10.90;6.43;;;9.40;99.90;;;;;;4952794;29;20208;-76
2021/06/24 00:31:28;;;;;;;9.87;6.87;;;9.40;99.90;;;;;;4945743;29;20240;-76
2021/06/24 00:33:55;;;;;;;11.70;7.10;;;9.40;99.90;;;;;;4955168;29;20210;-77
2021/06/24 00:36:22;;;;;;;10.73;6.93;;;9.40;99.90;;;;;;4948730;29;20606;-77
2021/06/24 00:38:49;;;;;;;9.07;6.90;;;9.30;99.90;;;;;;4935496;29;20263;-78
2021/06/24 00:41:17;;;;;;;10.03;6.57;;;9.20;99.90;;;;;;4951408;29;20207;-78
2021/06/24 00:43:45;;;;;;;9.67;6.37;;;9.20;99.90;;;;;;4950582;29;20227;-78
2021/06/24 00:46:12;;;;;;;8.27;6.30;;;9.20;99.90;;;;;;4955201;29;20265;-76
2021/06/24 00:48:39;;;;;;;9.57;6.60;;;9.10;99.90;;;;;;4955704;29;20203;-76
2021/06/24 00:51:06;;;;;;;11.77;7.17;;;9.10;99.90;;;;;;4955292;29;20252;-78
2021/06/24 00:53:33;;;;;;;12.07;7.03;;;9.10;99.90;;;;;;4952747;29;20200;-76
2021/06/24 00:56:01;;;;;;;11.90;6.83;;;9.10;99.90;;;;;;4937401;29;20200;-79
2021/06/24 00:58:29;;;;;;;11.47;6.87;;;9.10;99.90;;;;;;4942653;29;20251;-78
2021/06/24 01:00:58;;;;;;;11.40;7.30;;;9.20;99.90;;;;;;4952341;29;20230;-78
2021/06/24 01:03:26;;;;;;;11.53;7.17;;;9.10;99.90;;;;;;4950840;29;20223;-78
2021/06/24 01:05:53;;;;;;;9.70;7.30;;;9.10;99.90;;;;;;4939872;29;20622;-78
2021/06/24 01:08:24;;;;;;;12.53;7.97;;;9.10;99.90;;;;;;4937722;29;20609;-78
2021/06/24 01:10:51;;;;;;;12.60;7.77;;;9.10;99.90;;;;;;4937757;29;20240;-78
2021/06/24 01:13:18;;;;;;;13.17;7.87;;;9.10;99.90;;;;;;4946280;29;20212;-78
2021/06/24 01:15:45;;;;;;;12.00;8.07;;;9.10;99.90;;;;;;4942817;29;20204;-78
2021/06/24 01:18:13;;;;;;;13.47;8.33;;;9.10;99.90;;;;;;4954629;29;20210;-78
2021/06/24 01:20:40;;;;;;;13.90;8.00;;;9.10;99.90;;;;;;4948581;28;20268;-78
2021/06/24 01:23:08;;;;;;;11.73;8.07;;;9.10;99.90;;;;;;4953815;29;20723;-78
2021/06/24 01:25:37;;;;;;;10.37;7.20;;;9.00;99.90;;;;;;4952475;29;20685;-78
2021/06/24 01:28:07;;;;;;;10.50;7.63;;;9.10;99.90;;;;;;4947847;29;20234;-78
2021/06/24 01:30:35;;;;;;;11.10;7.27;;;9.10;99.90;;;;;;4935513;29;20615;-78
2021/06/24 01:33:03;;;;;;;13.67;7.20;;;9.10;99.90;;;;;;4943373;29;20204;-77
2021/06/24 01:35:32;;;;;;;14.83;7.43;;;9.00;99.90;;;;;;4945351;29;20629;-78
2021/06/24 01:38:00;;;;;;;12.60;6.87;;;9.00;99.90;;;;;;4937461;29;20200;-78
2021/06/24 01:40:29;;;;;;;10.80;6.63;;;9.00;99.90;;;;;;4952608;29;20723;-78
2021/06/24 01:42:58;;;;;;;11.47;7.60;;;8.90;99.90;;;;;;4919680;29;20203;-78
2021/06/24 01:45:25;;;;;;;12.93;7.10;;;8.90;99.90;;;;;;4951181;29;20269;-78
2021/06/24 01:47:53;;;;;;;10.13;6.50;;;8.80;99.90;;;;;;4946540;29;20278;-78
2021/06/24 01:50:20;;;;;;;9.67;7.03;;;8.80;99.90;;;;;;4935110;29;20255;-78
2021/06/24 01:52:49;;;;;;;8.97;7.03;;;8.80;99.90;;;;;;4945419;29;20207;-78
2021/06/24 01:55:17;;;;;;;13.77;7.30;;;8.70;99.90;;;;;;4953714;29;20203;-78
2021/06/24 01:57:45;;;;;;;12.63;6.50;;;8.70;99.90;;;;;;4938752;29;20262;-78
2021/06/24 02:00:15;;;;;;;13.60;7.00;;;8.60;99.90;;;;;;4938471;29;20576;-78
2021/06/24 02:02:43;;;;;;;10.33;6.83;;;8.70;99.90;;;;;;4953968;29;20203;-78
2021/06/24 02:05:11;;;;;;;9.73;6.80;;;8.70;99.90;;;;;;4953542;29;20731;-78
2021/06/24 02:07:42;;;;;;;14.77;7.87;;;8.80;99.90;;;;;;4938035;29;20205;-78
2021/06/24 02:10:11;;;;;;;12.67;7.30;;;8.80;99.90;;;;;;4947936;29;20621;-78
2021/06/24 02:12:38;;;;;;;11.60;7.73;;;8.80;99.90;;;;;;4944444;29;20274;-78
2021/06/24 02:15:07;;;;;;;9.97;7.20;;;8.70;99.90;;;;;;4954019;29;20204;-78
2021/06/24 02:17:35;;;;;;;14.30;6.83;;;8.70;99.90;;;;;;4951083;29;20238;-78
2021/06/24 02:20:03;;;;;;;13.67;7.50;;;8.60;99.90;;;;;;4951609;29;20555;-77
2021/06/24 02:22:30;;;;;;;12.57;7.70;;;8.60;99.90;;;;;;4947052;29;20246;-77
2021/06/24 02:24:57;;;;;;;10.47;7.87;;;8.60;99.90;;;;;;4949692;29;20227;-77
2021/06/24 02:27:24;;;;;;;15.57;7.90;;;8.70;99.90;;;;;;4940273;29;20236;-77
2021/06/24 02:29:51;;;;;;;11.20;7.63;;;8.60;99.90;;;;;;4935980;29;20314;-78
2021/06/24 02:32:18;;;;;;;10.97;8.27;;;8.60;99.90;;;;;;4950095;29;20235;-77
2021/06/24 02:34:47;;;;;;;11.30;8.30;;;8.60;99.90;;;;;;4934602;29;20242;-77
2021/06/24 02:37:14;;;;;;;9.27;8.03;;;8.60;99.90;;;;;;4943619;29;20245;-78
2021/06/24 02:39:41;;;;;;;12.50;7.63;;;8.60;99.90;;;;;;4951201;29;20199;-78
2021/06/24 02:42:09;;;;;;;11.80;7.87;;;8.60;99.90;;;;;;4940451;29;20232;-77
2021/06/24 02:44:36;;;;;;;12.83;8.03;;;8.50;99.90;;;;;;4953309;29;20314;-77
2021/06/24 02:47:03;;;;;;;11.90;8.93;;;8.60;99.90;;;;;;4941761;29;20207;-78
2021/06/24 02:49:30;;;;;;;17.37;8.10;;;8.60;99.90;;;;;;4940761;29;20259;-77
2021/06/24 02:51:58;;;;;;;11.87;7.80;;;8.60;99.90;;;;;;4952179;29;20246;-77
2021/06/24 02:54:25;;;;;;;12.17;7.63;;;8.60;99.90;;;;;;4953741;29;20233;-77
2021/06/24 02:56:52;;;;;;;12.20;7.47;;;8.50;99.90;;;;;;4952766;29;20298;-77
2021/06/24 02:59:19;;;;;;;9.20;7.80;;;8.50;99.90;;;;;;4946906;29;20603;-77
2021/06/24 03:01:46;;;;;;;11.93;7.67;;;8.50;99.90;;;;;;4937260;29;20287;-76
2021/06/24 03:04:13;;;;;;;12.70;8.40;;;8.40;99.90;;;;;;4938049;29;20227;-76
2021/06/24 03:06:40;;;;;;;12.00;7.73;;;8.40;99.90;;;;;;4950403;29;20580;-77
2021/06/24 03:09:08;;;;;;;11.47;7.60;;;8.30;99.90;;;;;;4956765;29;20298;-77
2021/06/24 03:11:35;;;;;;;9.87;7.87;;;8.40;99.90;;;;;;4956884;29;20230;-78
2021/06/24 03:14:02;;;;;;;12.27;8.40;;;8.30;99.90;;;;;;4939226;29;20630;-77
2021/06/24 03:16:29;;;;;;;12.07;7.60;;;8.30;99.90;;;;;;4949167;29;20234;-76
2021/06/24 03:18:56;;;;;;;12.73;8.70;;;8.30;99.90;;;;;;4957046;29;20263;-76
2021/06/24 03:21:23;;;;;;;11.37;8.10;;;8.30;99.90;;;;;;4945399;29;20308;-78
2021/06/24 03:23:50;;;;;;;17.50;8.67;;;8.20;99.90;;;;;;4956525;29;20323;-79
2021/06/24 03:26:18;;;;;;;13.23;7.63;;;8.30;99.90;;;;;;4955685;29;20236;-78
2021/06/24 03:28:45;;;;;;;9.20;7.10;;;8.20;99.90;;;;;;4956378;29;20238;-79
2021/06/24 03:31:13;;;;;;;11.13;7.10;;;8.10;99.90;;;;;;4945836;29;20199;-79
2021/06/24 03:33:40;;;;;;;8.93;7.23;;;8.00;99.90;;;;;;4956493;29;20266;-79
2021/06/24 03:36:07;;;;;;;12.03;7.50;;;8.00;99.90;;;;;;4939438;29;20258;-79
2021/06/24 03:38:34;;;;;;;13.03;7.80;;;8.00;99.90;;;;;;4953826;29;20209;-78
2021/06/24 03:41:01;;;;;;;12.17;7.60;;;8.00;99.90;;;;;;4934599;29;20298;-75
2021/06/24 03:43:29;;;;;;;11.43;7.73;;;8.00;99.90;;;;;;4940672;29;20244;-76
2021/06/24 03:45:57;;;;;;;11.50;8.03;;;8.00;99.90;;;;;;4953396;29;20234;-78
2021/06/24 03:48:24;;;;;;;12.43;8.20;;;8.00;99.90;;;;;;4953923;29;20206;-78
2021/06/24 03:50:51;;;;;;;11.17;7.90;;;8.00;99.90;;;;;;4956333;29;20242;-77
2021/06/24 03:53:18;;;;;;;12.27;8.00;;;8.00;99.90;;;;;;4955575;29;20245;-78
2021/06/24 03:55:45;;;;;;;11.00;7.03;;;8.00;99.90;;;;;;4955878;28;20207;-78
2021/06/24 03:58:13;;;;;;;10.13;7.40;;;7.80;99.90;;;;;;4949555;29;20200;-78
2021/06/24 04:00:44;;;;;;;9.47;7.13;;;7.80;99.90;;;;;;4955748;29;20295;-78
2021/06/24 04:03:11;;;;;;;12.87;7.53;;;7.80;99.90;;;;;;4947786;29;20215;-78
2021/06/24 04:05:38;;;;;;;10.53;7.03;;;7.70;99.90;;;;;;4954740;29;20254;-78
2021/06/24 04:08:07;;;;;;;12.70;8.27;;;7.80;99.90;;;;;;4952622;29;20645;-78
2021/06/24 04:10:35;;;;;;;10.63;7.77;;;7.80;99.90;;;;;;4936591;29;21047;-77
2021/06/24 04:13:02;;;;;;;12.43;8.70;;;7.80;99.90;;;;;;4942831;29;20284;-78
2021/06/24 04:15:31;;;;;;;14.43;8.73;;;7.70;99.90;;;;;;4954259;29;20234;-78
2021/06/24 04:18:02;;;;;;;11.30;8.10;;;7.70;99.90;;;;;;4955167;29;20203;-77
2021/06/24 04:20:30;;;;;;;9.87;8.13;;;7.70;99.90;;;;;;4936526;29;20211;-78
2021/06/24 04:22:57;;;;;;;11.97;7.70;;;7.70;99.90;;;;;;4937207;29;20246;-78
2021/06/24 04:25:25;;;;;;;10.77;8.00;;;7.70;99.90;;;;;;4936609;29;20231;-78
2021/06/24 04:27:52;;;;;;;11.53;8.03;;;7.70;99.90;;;;;;4936966;29;20294;-78
2021/06/24 04:30:21;;;;;;;10.97;8.07;;;7.70;99.90;;;;;;4942492;29;20239;-78
2021/06/24 04:32:48;;;;;;;14.53;8.23;;;7.60;99.90;;;;;;4940952;29;20206;-78
2021/06/24 04:35:16;;;;;;;11.90;7.60;;;7.70;99.90;;;;;;4940912;29;20233;-78
2021/06/24 04:37:43;;;;;;;12.33;7.90;;;7.80;99.90;;;;;;4948485;29;20215;-78
2021/06/24 04:40:12;;;;;;;12.90;8.47;;;7.80;99.90;;;;;;4943721;29;20247;-78
2021/06/24 04:42:39;;;;;;;12.50;8.00;;;7.80;99.90;;;;;;4951857;29;20313;-78
2021/06/24 04:45:08;;;;;;;10.77;7.73;;;7.90;99.90;;;;;;4947762;29;20223;-78
2021/06/24 04:47:35;;;;;;;12.23;8.07;;;7.90;99.90;;;;;;4938001;29;20208;-78
2021/06/24 04:50:02;;;;;;;12.37;7.77;;;7.90;99.90;;;;;;4955558;29;20310;-78
2021/06/24 04:52:30;;;;;;;12.50;7.50;;;7.90;99.90;;;;;;4955297;29;20241;-78
2021/06/24 04:54:57;;;;;;;13.70;7.70;;;8.00;99.90;;;;;;4955394;29;20250;-78
2021/06/24 04:57:24;;;;;;;14.17;7.70;;;7.90;99.90;;;;;;4954381;29;20269;-78
2021/06/24 04:59:51;;;;;;;11.30;8.97;;;8.00;99.90;;;;;;4954430;29;20204;-78
2021/06/24 05:02:18;;;;;;;11.07;8.17;;;8.10;99.90;;;;;;4950553;29;20296;-78
2021/06/24 05:04:45;;;;;;;11.03;7.93;;;8.20;99.90;;;;;;4950562;29;20220;-78
2021/06/24 05:07:12;;;;;;;11.87;8.27;;;8.30;99.90;;;;;;4951171;29;20238;-77
2021/06/24 05:09:41;;;;;;;13.70;8.40;;;8.50;99.90;;;;;;4952260;29;20242;-78
2021/06/24 05:12:09;;;;;;;11.53;8.17;;;8.70;99.90;;;;;;4953231;29;20290;-78
2021/06/24 05:14:37;;;;;;;13.53;8.57;;;8.80;99.90;;;;;;4952603;29;20234;-78
2021/06/24 05:17:04;;;;;;;13.33;9.30;;;8.90;99.90;;;;;;4955113;29;20254;-79
2021/06/24 05:19:33;;;;;;;13.40;9.30;;;9.10;99.90;;;;;;4954630;29;20206;-78
2021/06/24 05:22:00;;;;;;;13.27;9.53;;;9.30;99.90;;;;;;4936847;29;20278;-76
2021/06/24 05:24:27;;;;;;;13.67;9.40;;;9.40;99.90;;;;;;4953547;28;20254;-78
2021/06/24 05:26:56;;;;;;;16.93;10.00;;;9.70;99.90;;;;;;4954566;29;20238;-78
2021/06/24 05:29:22;;;;;;;17.50;10.93;;;9.90;99.90;;;;;;4950787;29;20696;-78
2021/06/24 05:31:49;;;;;;;13.17;8.50;;;10.30;99.90;;;;;;4954305;29;20237;-78
2021/06/24 05:34:17;;;;;;;14.23;8.10;;;11.00;99.90;;;;;;4941700;29;20287;-78
2021/06/24 05:36:43;;;;;;;12.17;7.77;;;11.70;99.90;;;;;;4952178;29;20289;-80
2021/06/24 05:39:11;;;;;;;12.30;8.70;;;12.20;99.90;;;;;;4947940;29;20222;-79
2021/06/24 05:41:38;;;;;;;10.70;7.00;;;12.60;99.90;;;;;;4954190;29;20257;-77
2021/06/24 05:44:06;;;;;;;9.10;6.53;;;13.00;99.90;;;;;;4952124;29;20673;-77
2021/06/24 05:46:33;;;;;;;9.77;6.60;;;13.70;99.90;;;;;;4954542;29;20262;-76
2021/06/24 05:49:00;;;;;;;12.57;5.63;;;14.20;99.90;;;;;;4948682;29;20282;-76
2021/06/24 05:51:27;;;;;;;10.53;6.30;;;14.70;99.90;;;;;;4952241;29;20290;-76
2021/06/24 05:53:54;;;;;;;6.73;5.23;;;15.10;99.90;;;;;;4937820;28;20243;-76
2021/06/24 05:56:23;;;;;;;8.03;5.20;;;15.70;99.90;;;;;;4941947;29;20222;-75
2021/06/24 05:58:50;;;;;;;10.23;5.17;;;16.20;99.90;;;;;;4952795;28;20206;-75
2021/06/24 06:01:20;;;;;;;8.60;4.77;;;16.70;99.90;;;;;;4946205;29;20281;-76
2021/06/24 06:03:47;;;;;;;8.07;4.90;;;16.50;99.90;;;;;;4948075;29;20210;-74
2021/06/24 06:06:14;;;;;;;5.80;4.63;;;16.90;99.90;;;;;;4953163;29;20317;-75
2021/06/24 06:08:41;;;;;;;9.63;5.03;;;17.10;99.90;;;;;;4953734;29;20755;-75
2021/06/24 06:11:08;;;;;;;6.28;4.18;;;17.10;99.90;;;;;;4949705;29;20283;-76
2021/06/24 06:13:35;;;;;;;7.28;4.30;;;17.20;99.90;;;;;;4948778;29;20227;-76
2021/06/24 06:16:02;;;;;;;7.63;4.20;;;17.30;99.90;;;;;;4951031;29;20275;-75
2021/06/24 06:18:30;;;;;;;9.18;4.78;;;17.20;99.90;;;;;;4946912;29;20286;-75
2021/06/24 06:20:58;;;;;;;6.75;4.32;;;17.00;99.90;;;;;;4952575;29;20321;-75
2021/06/24 06:23:27;;;;;;;8.07;4.10;;;18.00;99.90;;;;;;4952997;29;20749;-75
2021/06/24 06:25:55;;;;;;;7.55;3.97;;;18.40;99.90;;;;;;4945723;29;20243;-75
2021/06/24 06:28:23;;;;;;;8.50;3.70;;;18.00;99.90;;;;;;4944188;29;20203;-75
2021/06/24 06:30:51;;;;;;;4.40;3.40;;;17.90;99.90;;;;;;4948598;29;20299;-75
2021/06/24 06:33:19;;;;;;;7.60;3.70;;;18.00;99.90;;;;;;4947604;29;20728;-75
2021/06/24 06:35:49;;;;;;;4.38;3.53;;;17.50;99.90;;;;;;4948243;28;20227;-75
2021/06/24 06:38:16;;;;;;;4.70;3.35;;;17.90;99.90;;;;;;4957595;29;20235;-75
2021/06/24 06:40:43;;;;;;;6.22;3.65;;;18.80;99.90;;;;;;4957382;29;20371;-75
2021/06/24 06:43:12;;;;;;;7.20;3.75;;;18.50;99.90;;;;;;4956778;29;20234;-75
2021/06/24 06:45:38;;;;;;;7.20;3.40;;;19.40;99.90;;;;;;4957083;29;20676;-76
2021/06/24 06:48:06;;;;;;;7.93;3.50;;;19.90;99.90;;;;;;4956807;29;20278;-76
2021/06/24 06:50:33;;;;;;;5.47;3.00;;;20.30;99.90;;;;;;4955742;28;20285;-76
2021/06/24 06:53:01;;;;;;;6.00;3.50;;;20.50;99.90;;;;;;4954024;29;20199;-76
2021/06/24 06:55:29;;;;;;;6.63;3.17;;;20.40;99.90;;;;;;4956434;29;20688;-76
2021/06/24 06:57:56;;;;;;;7.25;3.42;;;21.00;99.90;;;;;;4939806;29;20199;-76
2021/06/24 07:00:25;;;;;;;6.47;3.13;;;20.70;99.90;;;;;;4956368;29;20199;-76
2021/06/24 07:02:52;;;;;;;7.40;3.70;;;21.00;99.90;;;;;;4952512;28;20204;-75
2021/06/24 07:05:23;;;;;;;7.45;3.60;;;20.70;99.90;;;;;;4956048;29;20253;-76
2021/06/24 07:07:50;;;;;;;5.53;3.20;;;21.60;99.90;;;;;;4953646;28;20206;-75
2021/06/24 07:10:19;;;;;;;4.53;3.22;;;22.20;99.90;;;;;;4956666;28;20222;-75
2021/06/24 07:12:46;;;;;;;6.75;3.28;;;22.80;99.90;;;;;;4955610;28;20230;-75
2021/06/24 07:15:14;;;;;;;4.47;3.20;;;22.20;99.90;;;;;;4957079;28;20626;-75
2021/06/24 07:17:42;;;;;;;5.50;3.00;;;22.20;99.90;;;;;;4955705;29;20214;-75
2021/06/24 07:20:09;;;;;;;7.10;3.13;;;22.00;99.90;;;;;;4954499;28;20660;-76
2021/06/24 07:22:36;;;;;;;5.50;3.10;;;22.00;99.90;;;;;;4951961;28;20270;-76
2021/06/24 07:25:05;;;;;;;4.13;2.90;;;20.80;99.90;;;;;;4955652;29;20308;-75
2021/06/24 07:27:33;;;;;;;5.75;3.10;;;21.00;99.90;;;;;;4953760;29;20238;-76
2021/06/24 07:30:01;;;;;;;8.13;3.22;;;20.90;99.90;;;;;;4955485;29;20274;-75
2021/06/24 07:32:28;;;;;;;4.70;2.85;;;21.20;99.90;;;;;;4955230;29;20211;-76
2021/06/24 07:34:55;;;;;;;4.85;3.08;;;21.60;99.90;;;;;;4953717;29;20286;-75
2021/06/24 07:37:22;;;;;;;6.20;2.97;;;21.70;99.90;;;;;;4956096;29;20237;-76
2021/06/24 07:39:49;;;;;;;5.40;2.78;;;21.90;99.90;;;;;;4955841;29;20199;-76
2021/06/24 07:42:19;;;;;;;5.05;2.90;;;21.70;99.90;;;;;;4955877;29;20293;-76
2021/06/24 07:44:47;;;;;;;5.93;2.83;;;21.70;99.90;;;;;;4952762;29;20199;-75
2021/06/24 07:47:14;;;;;;;6.28;2.70;;;22.30;99.90;;;;;;4954688;28;20306;-75
2021/06/24 07:49:41;;;;;;;5.07;3.10;;;21.90;99.90;;;;;;4955510;29;20211;-76
2021/06/24 07:52:08;;;;;;;5.22;2.70;;;21.70;99.90;;;;;;4955777;29;20223;-76
2021/06/24 07:54:35;;;;;;;5.80;2.80;;;22.20;99.90;;;;;;4955482;29;20293;-75
2021/06/24 07:57:02;;;;;;;4.70;2.80;;;21.80;99.90;;;;;;4955592;29;20233;-76
2021/06/24 07:59:29;;;;;;;7.07;2.78;;;22.80;99.90;;;;;;4952751;29;20234;-76
2021/06/24 08:01:57;;;;;;;6.45;3.10;;;22.80;99.90;;;;;;4954491;29;20283;-75
2021/06/24 08:04:24;;;;;;;5.03;3.13;;;23.30;99.90;;;;;;4952984;29;20199;-75
2021/06/24 08:06:52;;;;;;;4.32;3.15;;;23.50;99.90;;;;;;4943328;29;20259;-75
2021/06/24 08:09:19;;;;;;;5.28;2.72;;;23.90;99.90;;;;;;4950284;29;20203;-76
2021/06/24 08:11:46;;;;;;;4.30;2.50;;;24.50;99.90;;;;;;4955269;29;20290;-76
2021/06/24 08:14:13;;;;;;;5.07;2.72;;;24.60;99.90;;;;;;4951553;29;20628;-76
2021/06/24 08:16:40;;;;;;;6.07;3.20;;;25.10;99.90;;;;;;4954785;29;20645;-76
2021/06/24 08:19:08;;;;;;;4.22;2.53;;;24.00;99.90;;;;;;4955068;29;20258;-76
2021/06/24 08:21:35;;;;;;;3.08;2.55;;;24.80;99.90;;;;;;4948528;28;20333;-76
2021/06/24 08:24:02;;;;;;;4.78;2.70;;;26.00;99.90;;;;;;4955021;29;20209;-76
2021/06/24 08:26:29;;;;;;;4.82;2.58;;;25.20;99.90;;;;;;4955190;29;20222;-76
2021/06/24 08:28:56;;;;;;;4.45;2.97;;;24.10;99.90;;;;;;4953827;29;20207;-75
2021/06/24 08:31:23;;;;;;;4.63;2.72;;;24.20;99.90;;;;;;4954653;29;20203;-76
2021/06/24 08:33:50;;;;;;;5.55;3.13;;;24.80;99.90;;;;;;4955242;29;20282;-76
2021/06/24 08:36:19;;;;;;;7.97;3.10;;;25.20;99.90;;;;;;4955157;29;20230;-76
2021/06/24 08:38:46;;;;;;;4.75;2.72;;;25.50;99.90;;;;;;4954939;29;20199;-76
2021/06/24 08:41:14;;;;;;;4.35;2.53;;;25.60;99.90;;;;;;4954510;29;20227;-76
2021/06/24 08:43:41;;;;;;;5.47;2.78;;;25.10;99.90;;;;;;4955071;29;20221;-77
2021/06/24 08:46:08;;;;;;;5.15;2.90;;;25.10;99.90;;;;;;4954329;29;20219;-76
2021/06/24 08:48:36;;;;;;;3.60;3.08;;;25.10;99.90;;;;;;4954880;29;20283;-76
2021/06/24 08:51:05;;;;;;;6.40;3.30;;;24.00;99.90;;;;;;4954577;29;20230;-76
2021/06/24 08:53:33;;;;;;;5.05;2.85;;;24.40;99.90;;;;;;4954240;29;20235;-76
2021/06/24 08:56:01;;;;;;;4.97;3.70;;;24.90;99.90;;;;;;4949884;29;20234;-76
2021/06/24 08:58:28;;;;;;;3.58;2.92;;;24.80;99.90;;;;;;4953403;28;20235;-76
2021/06/24 09:00:55;;;;;;;4.55;3.40;;;25.20;99.90;;;;;;4954408;29;20289;-76
2021/06/24 09:03:24;;;;;;;5.13;3.35;;;25.40;99.90;;;;;;4949600;29;20211;-77
2021/06/24 09:05:53;;;;;;;4.53;3.55;;;25.20;99.90;;;;;;4953211;29;20219;-76
2021/06/24 09:08:37;;;;;;;7.13;4.00;;;26.10;99.90;;;;;;4950326;29;20254;-76
2021/06/24 09:11:19;;;;;;;5.45;3.85;;;25.60;99.90;;;;;;4952009;29;20577;-76
2021/06/24 09:13:58;;;;;;;4.80;3.83;;;26.20;99.90;;;;;;4954513;28;20285;-76
2021/06/24 09:16:26;;;;;;;4.60;3.88;;;25.70;99.90;;;;;;4969187;28;20694;-76
2021/06/24 09:19:12;;;;;;;6.03;3.92;;;25.60;99.90;;;;;;4958070;28;20294;-76
2021/06/24 09:21:39;;;;;;;7.78;4.65;;;26.00;99.90;;;;;;4952593;28;20235;-76
2021/06/24 09:24:26;;;;;;;4.63;4.22;;;27.30;99.90;;;;;;4940096;28;20295;-77
2021/06/24 09:26:53;;;;;;;4.65;3.78;;;26.10;99.90;;;;;;4943247;28;20917;-77
2021/06/24 09:29:21;;;;;;;6.25;4.20;;;26.00;99.90;;;;;;4960859;28;20234;-76
2021/06/24 09:31:53;;;;;;;8.48;4.15;;;25.40;99.90;;;;;;4964067;28;20797;-76
2021/06/24 09:34:22;;;;;;;5.57;4.63;;;25.80;99.90;;;;;;4959004;28;20215;-77
2021/06/24 09:36:51;;;;;;;6.35;4.15;;;24.60;99.90;;;;;;4950881;28;20637;-76
2021/06/24 09:39:29;;;;;;;5.78;4.38;;;25.60;99.90;;;;;;4954755;28;20629;-76
2021/06/24 09:41:58;;;;;;;6.53;4.30;;;26.50;99.90;;;;;;4949522;28;20586;-77
2021/06/24 09:44:25;;;;;;;7.82;4.35;;;25.90;99.90;;;;;;4956933;28;20207;-77
2021/06/24 09:46:52;;;;;;;5.28;3.70;;;26.70;99.90;;;;;;4957675;28;20323;-76
2021/06/24 09:49:27;;;;;;;6.15;3.55;;;27.80;99.90;;;;;;4963678;28;20234;-76
2021/06/24 09:51:56;;;;;;;4.38;3.40;;;28.20;99.90;;;;;;4963803;28;20201;-77
2021/06/24 09:54:34;;;;;;;5.45;4.15;;;27.60;99.90;;;;;;4951204;28;20266;-77
2021/06/24 09:57:03;;;;;;;5.95;4.22;;;26.10;99.90;;;;;;4954632;28;20620;-76
2021/06/24 09:59:35;;;;;;;7.72;4.25;;;26.90;99.90;;;;;;4955028;28;20284;-76
2021/06/24 10:02:07;;;;;;;7.65;4.50;;;27.40;99.90;;;;;;4949565;29;20242;-76
2021/06/24 10:04:35;;;;;;;5.80;4.45;;;28.10;99.90;;;;;;4952354;28;20238;-76
2021/06/24 10:07:03;;;;;;;5.72;4.45;;;28.70;99.90;;;;;;4952687;28;20325;-76
2021/06/24 10:09:32;;;;;;;7.22;5.15;;;27.40;99.90;;;;;;4952477;28;20238;-76
2021/06/24 10:12:00;;;;;;;6.43;4.93;;;26.50;99.90;;;;;;4969156;28;20207;-75
2021/06/24 10:14:28;;;;;;;7.70;5.28;;;27.10;99.90;;;;;;4952839;28;20779;-76
2021/06/24 10:16:57;;;;;;;7.97;4.90;;;28.00;99.90;;;;;;4961868;28;20194;-76
2021/06/24 10:19:26;;;;;;;5.97;4.78;;;29.10;99.90;;;;;;4960868;28;20215;-76
2021/06/24 10:21:58;;;;;;;4.97;4.22;;;29.40;99.90;;;;;;4965710;28;20305;-76
2021/06/24 10:24:32;;;;;;;5.35;4.85;;;28.20;99.90;;;;;;4947801;28;20686;-76
2021/06/24 10:27:04;;;;;;;8.40;5.07;;;28.00;99.90;;;;;;4961299;28;20625;-76
2021/06/24 10:29:41;;;;;;;8.60;4.50;;;29.10;99.90;;;;;;4970458;28;20678;-76
2021/06/24 10:32:29;;;;;;;8.30;4.85;;;29.10;99.90;;;;;;4966299;28;20265;-76
2021/06/24 10:34:58;;;;;;;6.30;5.10;;;29.30;99.90;;;;;;4961532;28;20249;-76
2021/06/24 10:37:26;;;;;;;6.20;4.70;;;28.90;99.90;;;;;;4971101;28;20293;-77
2021/06/24 10:39:56;;;;;;;7.00;5.30;;;29.80;99.90;;;;;;4969454;28;20217;-78
2021/06/24 10:42:24;;;;;;;8.43;5.70;;;26.40;99.90;;;;;;4941655;28;20290;-76
2021/06/24 10:44:54;;;;;;;7.18;5.22;;;26.60;99.90;;;;;;4941309;28;20293;-77
2021/06/24 10:47:39;;;;;;;8.80;5.60;;;27.60;99.90;;;;;;4947126;28;20227;-76
2021/06/24 10:50:49;;;;;;;7.45;5.80;;;27.80;99.90;;;;;;4948345;29;20716;-76
2021/06/24 10:53:47;;;;;;;7.80;6.30;;;28.10;99.90;;;;;;4952519;28;20235;-76
2021/06/24 10:56:34;;;;;;;8.63;6.50;;;26.10;99.90;;;;;;4934209;29;20266;-76
2021/06/24 10:59:04;;;;;;;7.70;7.00;;;24.20;99.90;;;;;;4933779;29;20204;-76
2021/06/24 11:01:42;;;;;;;10.10;6.90;;;24.50;99.90;;;;;;4934286;29;20211;-76
2021/06/24 11:04:22;;;;;;;7.80;6.70;;;27.00;99.90;;;;;;4939454;28;20539;-77
2021/06/24 11:06:52;;;;;;;6.85;6.15;;;28.10;99.90;;;;;;4937518;29;20697;-77
2021/06/24 11:09:20;;;;;;;6.63;6.03;;;29.30;99.90;;;;;;4938714;29;20206;-76
2021/06/24 11:11:54;;;;;;;7.05;6.28;;;29.10;99.90;;;;;;4951563;29;20238;-75
2021/06/24 11:14:58;;;;;;;7.45;6.75;;;29.20;99.90;;;;;;4950171;29;20808;-77
2021/06/24 11:17:46;;;;;;;9.98;7.22;;;27.50;99.90;;;;;;4951011;28;20200;-76
2021/06/24 11:20:19;;;;;;;8.18;7.38;;;25.60;99.90;;;;;;4951282;29;20200;-76
2021/06/24 11:22:48;;;;;;;8.32;7.47;;;25.90;99.90;;;;;;4955170;29;20247;-76
2021/06/24 11:25:14;;;;;;;8.57;7.78;;;27.10;99.90;;;;;;4955850;29;20570;-75
2021/06/24 11:27:43;;;;;;;9.23;7.03;;;25.80;99.90;;;;;;4956613;29;20320;-76
2021/06/24 11:30:12;;;;;;;8.20;6.78;;;26.10;99.90;;;;;;4953872;29;20207;-77
2021/06/24 11:32:44;;;;;;;8.75;7.80;;;27.20;99.90;;;;;;4945399;29;20200;-76
2021/06/24 11:35:50;;;;;;;7.88;7.10;;;26.50;99.90;;;;;;4951688;29;20204;-77
2021/06/24 11:38:17;;;;;;;8.82;7.22;;;27.10;99.90;;;;;;4952397;29;20191;-76
2021/06/24 11:40:44;;;;;;;9.52;8.07;;;27.40;99.90;;;;;;4954837;29;20298;-76
2021/06/24 11:43:12;;;;;;;8.63;7.82;;;26.00;99.90;;;;;;4949741;29;20610;-76
2021/06/24 11:45:39;;;;;;;9.32;8.40;;;26.30;99.90;;;;;;4953732;29;20234;-76
2021/06/24 11:48:06;;;;;;;8.13;7.32;;;26.00;99.90;;;;;;4966563;28;20218;-76
2021/06/24 12:04:29;;;;;;;9.75;8.70;;;26.10;99.90;;;;;;4945380;29;20657;-77
2021/06/24 12:06:59;;;;;;;9.57;8.65;;;23.70;99.90;;;;;;4954449;29;20230;-77
2021/06/24 12:09:28;;;;;;;10.05;8.52;;;24.30;99.90;;;;;;4954146;29;20207;-78
2021/06/24 12:11:57;;;;;;;9.00;8.10;;;26.40;99.90;;;;;;4925779;29;20239;-78
2021/06/24 12:14:28;;;;;;;9.13;8.18;;;27.60;99.90;;;;;;4949867;29;20204;-78
2021/06/24 12:17:06;;;;;;;8.70;7.82;;;28.70;99.90;;;;;;4955463;29;20691;-78
2021/06/24 12:19:51;;;;;;;7.80;7.10;;;27.90;99.90;;;;;;4955072;29;20234;-78
2021/06/24 12:22:20;;;;;;;8.95;7.38;;;28.30;99.50;;;;;;4953748;29;20278;-78
2021/06/24 12:24:47;;;;;;;8.88;7.75;;;27.20;98.90;;;;;;4955709;29;20203;-77
2021/06/24 12:27:16;;;;;;;7.95;7.25;;;27.20;99.70;;;;;;4954067;29;20255;-77
2021/06/24 12:29:45;;;;;;;9.23;7.57;;;27.70;99.90;;;;;;4942696;29;20248;-78
2021/06/24 12:32:12;;;;;;;9.48;7.97;;;26.70;99.90;;;;;;4945224;28;20210;-78
2021/06/24 12:34:39;;;;;;;8.18;7.35;;;26.20;99.90;;;;;;4942150;29;20609;-78
2021/06/24 12:37:06;;;;;;;9.30;8.40;;;28.00;99.90;;;;;;4941605;29;20222;-78
2021/06/24 12:39:33;;;;;;;8.93;8.13;;;26.50;98.70;;;;;;4946830;29;20203;-77
2021/06/24 12:42:04;;;;;;;9.18;7.93;;;26.20;99.90;;;;;;4942884;28;20259;-78
2021/06/24 12:44:37;;;;;;;8.50;7.70;;;25.00;99.90;;;;;;4943605;29;20212;-77
2021/06/24 12:47:06;;;;;;;9.05;8.15;;;26.30;99.90;;;;;;4944111;29;20232;-78
2021/06/24 12:49:35;;;;;;;9.68;8.75;;;26.90;99.90;;;;;;4950433;29;20294;-77
2021/06/24 12:52:04;;;;;;;9.10;8.20;;;26.70;99.90;;;;;;4952781;29;20290;-78
2021/06/24 12:54:39;;;;;;;9.57;8.57;;;27.00;99.90;;;;;;4953921;29;20610;-78
2021/06/24 12:57:07;;;;;;;8.75;7.85;;;27.90;99.90;;;;;;4948905;28;20210;-77
2021/06/24 12:59:34;;;;;;;10.15;7.05;;;27.50;99.90;;;;;;4946881;29;20207;-78
2021/06/24 13:02:05;;;;;;;8.40;7.57;;;28.80;99.90;;;;;;4940283;29;20227;-77
2021/06/24 13:04:40;;;;;;;7.97;7.25;;;29.00;99.90;;;;;;4936830;29;20286;-78
2021/06/24 13:07:07;;;;;;;7.47;6.78;;;28.70;97.50;;;;;;4953128;29;20218;-78
2021/06/24 13:09:46;;;;;;;7.82;7.13;;;29.30;95.50;;;;;;4956111;28;20238;-78
2021/06/24 13:12:17;;;;;;;8.07;7.22;;;29.20;95.60;;;;;;4945296;29;20308;-78